sensor_id;sensor_type;location;lat;lon;timestamp;P1;durP1;ratioP1;P2;durP2;ratioP2
23346;SDS011;36852;45.466;11.066;2023-03-01T00:00:22;14.05;;;8.90;;
23346;SDS011;36852;45.466;11.066;2023-03-01T00:02:50;12.00;;;6.50;;
23346;SDS011;36852;45.466;11.066;2023-03-01T00:05:19;10.55;;;7.30;;
23346;SDS011;36852;45.466;11.066;2023-03-01T00:07:52;11.08;;;6.83;;
23346;SDS011;36852;45.466;11.066;2023-03-01T00:15:43;12.05;;;6.97;;
23346;SDS011;36852;45.466;11.066;2023-03-01T00:18:12;10.68;;;7.67;;
23346;SDS011;36852;45.466;11.066;2023-03-01T00:20:40;11.75;;;7.17;;
23346;SDS011;36852;45.466;11.066;2023-03-01T00:23:09;11.85;;;7.10;;
23346;SDS011;36852;45.466;11.066;2023-03-01T00:25:41;14.43;;;7.67;;
23346;SDS011;36852;45.466;11.066;2023-03-01T00:28:09;12.60;;;7.58;;
23346;SDS011;36852;45.466;11.066;2023-03-01T00:30:37;9.55;;;7.03;;
23346;SDS011;36852;45.466;11.066;2023-03-01T00:33:06;16.05;;;8.93;;
23346;SDS011;36852;45.466;11.066;2023-03-01T00:35:34;13.83;;;8.48;;
23346;SDS011;36852;45.466;11.066;2023-03-01T00:38:03;13.85;;;8.13;;
23346;SDS011;36852;45.466;11.066;2023-03-01T00:40:32;13.48;;;8.38;;
23346;SDS011;36852;45.466;11.066;2023-03-01T00:43:01;14.05;;;9.75;;
23346;SDS011;36852;45.466;11.066;2023-03-01T00:45:30;14.50;;;8.88;;
23346;SDS011;36852;45.466;11.066;2023-03-01T00:48:03;14.80;;;8.83;;
23346;SDS011;36852;45.466;11.066;2023-03-01T00:50:33;13.43;;;9.20;;
23346;SDS011;36852;45.466;11.066;2023-03-01T00:53:01;18.60;;;10.18;;
23346;SDS011;36852;45.466;11.066;2023-03-01T00:55:29;16.35;;;8.93;;
23346;SDS011;36852;45.466;11.066;2023-03-01T00:57:57;15.20;;;8.78;;
23346;SDS011;36852;45.466;11.066;2023-03-01T01:00:26;15.10;;;9.55;;
23346;SDS011;36852;45.466;11.066;2023-03-01T01:02:55;15.08;;;8.85;;
23346;SDS011;36852;45.466;11.066;2023-03-01T01:05:34;14.15;;;9.40;;
23346;SDS011;36852;45.466;11.066;2023-03-01T01:10:51;13.68;;;8.55;;
23346;SDS011;36852;45.466;11.066;2023-03-01T01:13:19;13.53;;;8.33;;
23346;SDS011;36852;45.466;11.066;2023-03-01T01:15:48;16.50;;;8.60;;
23346;SDS011;36852;45.466;11.066;2023-03-01T01:18:16;15.30;;;8.28;;
23346;SDS011;36852;45.466;11.066;2023-03-01T01:20:44;13.95;;;8.00;;
23346;SDS011;36852;45.466;11.066;2023-03-01T01:23:15;12.85;;;7.70;;
23346;SDS011;36852;45.466;11.066;2023-03-01T01:25:43;12.98;;;8.48;;
23346;SDS011;36852;45.466;11.066;2023-03-01T01:28:11;13.75;;;8.25;;
23346;SDS011;36852;45.466;11.066;2023-03-01T01:30:42;11.25;;;7.80;;
23346;SDS011;36852;45.466;11.066;2023-03-01T01:33:10;13.32;;;8.60;;
23346;SDS011;36852;45.466;11.066;2023-03-01T01:35:38;12.68;;;7.97;;
23346;SDS011;36852;45.466;11.066;2023-03-01T01:38:06;13.68;;;8.15;;
23346;SDS011;36852;45.466;11.066;2023-03-01T01:40:34;15.18;;;8.50;;
23346;SDS011;36852;45.466;11.066;2023-03-01T01:43:02;14.47;;;8.15;;
23346;SDS011;36852;45.466;11.066;2023-03-01T01:45:32;15.70;;;8.23;;
23346;SDS011;36852;45.466;11.066;2023-03-01T01:48:03;14.10;;;8.58;;
23346;SDS011;36852;45.466;11.066;2023-03-01T01:50:32;12.55;;;7.95;;
23346;SDS011;36852;45.466;11.066;2023-03-01T01:53:09;14.65;;;8.30;;
23346;SDS011;36852;45.466;11.066;2023-03-01T01:55:47;14.95;;;8.08;;
23346;SDS011;36852;45.466;11.066;2023-03-01T01:58:18;16.75;;;7.72;;
23346;SDS011;36852;45.466;11.066;2023-03-01T02:00:48;14.70;;;8.58;;
23346;SDS011;36852;45.466;11.066;2023-03-01T02:03:18;16.62;;;9.60;;
23346;SDS011;36852;45.466;11.066;2023-03-01T02:08:37;15.38;;;9.90;;
23346;SDS011;36852;45.466;11.066;2023-03-01T02:11:07;15.15;;;9.38;;
23346;SDS011;36852;45.466;11.066;2023-03-01T02:13:37;17.60;;;9.80;;
23346;SDS011;36852;45.466;11.066;2023-03-01T02:16:08;18.60;;;10.20;;
23346;SDS011;36852;45.466;11.066;2023-03-01T02:18:36;19.52;;;10.43;;
23346;SDS011;36852;45.466;11.066;2023-03-01T02:23:40;18.27;;;9.98;;
23346;SDS011;36852;45.466;11.066;2023-03-01T02:26:11;17.35;;;10.05;;
23346;SDS011;36852;45.466;11.066;2023-03-01T02:28:41;15.98;;;9.50;;
23346;SDS011;36852;45.466;11.066;2023-03-01T02:31:11;19.12;;;11.22;;
23346;SDS011;36852;45.466;11.066;2023-03-01T02:34:02;17.98;;;10.48;;
23346;SDS011;36852;45.466;11.066;2023-03-01T02:36:36;20.12;;;11.20;;
23346;SDS011;36852;45.466;11.066;2023-03-01T02:39:07;18.20;;;10.15;;
23346;SDS011;36852;45.466;11.066;2023-03-01T02:41:39;18.70;;;10.70;;
23346;SDS011;36852;45.466;11.066;2023-03-01T02:44:10;18.25;;;10.50;;
23346;SDS011;36852;45.466;11.066;2023-03-01T02:46:42;16.73;;;10.18;;
23346;SDS011;36852;45.466;11.066;2023-03-01T02:49:17;24.47;;;12.17;;
23346;SDS011;36852;45.466;11.066;2023-03-01T02:54:30;20.68;;;10.38;;
23346;SDS011;36852;45.466;11.066;2023-03-01T03:00:05;16.82;;;10.70;;
23346;SDS011;36852;45.466;11.066;2023-03-01T03:02:37;19.87;;;10.68;;
23346;SDS011;36852;45.466;11.066;2023-03-01T03:05:12;22.07;;;11.20;;
23346;SDS011;36852;45.466;11.066;2023-03-01T03:10:13;19.75;;;10.60;;
23346;SDS011;36852;45.466;11.066;2023-03-01T03:12:42;17.98;;;10.05;;
23346;SDS011;36852;45.466;11.066;2023-03-01T03:15:10;18.20;;;10.68;;
23346;SDS011;36852;45.466;11.066;2023-03-01T03:17:40;18.20;;;10.75;;
23346;SDS011;36852;45.466;11.066;2023-03-01T03:20:12;21.65;;;11.95;;
23346;SDS011;36852;45.466;11.066;2023-03-01T03:22:43;18.90;;;11.68;;
23346;SDS011;36852;45.466;11.066;2023-03-01T03:25:10;21.10;;;11.48;;
23346;SDS011;36852;45.466;11.066;2023-03-01T03:27:40;18.07;;;10.53;;
23346;SDS011;36852;45.466;11.066;2023-03-01T03:30:23;18.30;;;10.40;;
23346;SDS011;36852;45.466;11.066;2023-03-01T03:32:52;20.60;;;12.10;;
23346;SDS011;36852;45.466;11.066;2023-03-01T03:37:52;17.67;;;11.00;;
23346;SDS011;36852;45.466;11.066;2023-03-01T03:40:31;20.77;;;11.85;;
23346;SDS011;36852;45.466;11.066;2023-03-01T03:43:04;21.12;;;11.83;;
23346;SDS011;36852;45.466;11.066;2023-03-01T03:45:35;18.80;;;11.12;;
23346;SDS011;36852;45.466;11.066;2023-03-01T03:48:04;20.68;;;12.00;;
23346;SDS011;36852;45.466;11.066;2023-03-01T03:50:33;15.93;;;10.55;;
23346;SDS011;36852;45.466;11.066;2023-03-01T03:53:03;19.42;;;11.12;;
23346;SDS011;36852;45.466;11.066;2023-03-01T03:55:32;18.60;;;11.18;;
23346;SDS011;36852;45.466;11.066;2023-03-01T03:58:02;20.85;;;11.50;;
23346;SDS011;36852;45.466;11.066;2023-03-01T04:00:35;19.77;;;10.53;;
23346;SDS011;36852;45.466;11.066;2023-03-01T04:03:05;18.42;;;10.28;;
23346;SDS011;36852;45.466;11.066;2023-03-01T04:05:34;22.37;;;10.85;;
23346;SDS011;36852;45.466;11.066;2023-03-01T04:08:03;21.97;;;11.85;;
23346;SDS011;36852;45.466;11.066;2023-03-01T04:10:38;21.90;;;11.03;;
23346;SDS011;36852;45.466;11.066;2023-03-01T04:13:10;21.33;;;11.48;;
23346;SDS011;36852;45.466;11.066;2023-03-01T04:15:40;19.30;;;11.85;;
23346;SDS011;36852;45.466;11.066;2023-03-01T04:18:14;17.90;;;10.78;;
23346;SDS011;36852;45.466;11.066;2023-03-01T04:20:43;18.32;;;10.72;;
23346;SDS011;36852;45.466;11.066;2023-03-01T04:26:02;18.10;;;10.63;;
23346;SDS011;36852;45.466;11.066;2023-03-01T04:28:33;21.50;;;11.50;;
23346;SDS011;36852;45.466;11.066;2023-03-01T04:31:04;18.80;;;11.70;;
23346;SDS011;36852;45.466;11.066;2023-03-01T04:36:22;20.23;;;11.78;;
23346;SDS011;36852;45.466;11.066;2023-03-01T04:38:52;19.12;;;11.30;;
23346;SDS011;36852;45.466;11.066;2023-03-01T04:41:21;21.37;;;11.57;;
23346;SDS011;36852;45.466;11.066;2023-03-01T04:43:54;21.40;;;11.70;;
23346;SDS011;36852;45.466;11.066;2023-03-01T04:46:22;20.25;;;12.18;;
23346;SDS011;36852;45.466;11.066;2023-03-01T04:48:50;21.52;;;12.70;;
23346;SDS011;36852;45.466;11.066;2023-03-01T04:51:19;19.95;;;11.55;;
23346;SDS011;36852;45.466;11.066;2023-03-01T04:53:47;23.95;;;12.78;;
23346;SDS011;36852;45.466;11.066;2023-03-01T04:56:15;20.48;;;12.58;;
23346;SDS011;36852;45.466;11.066;2023-03-01T04:58:45;20.35;;;11.78;;
23346;SDS011;36852;45.466;11.066;2023-03-01T05:01:17;20.77;;;12.25;;
23346;SDS011;36852;45.466;11.066;2023-03-01T05:03:48;24.47;;;13.13;;
23346;SDS011;36852;45.466;11.066;2023-03-01T05:06:18;24.67;;;13.48;;
23346;SDS011;36852;45.466;11.066;2023-03-01T05:08:48;25.23;;;13.48;;
23346;SDS011;36852;45.466;11.066;2023-03-01T05:11:15;21.77;;;12.65;;
23346;SDS011;36852;45.466;11.066;2023-03-01T05:13:43;17.80;;;11.55;;
23346;SDS011;36852;45.466;11.066;2023-03-01T05:16:12;19.48;;;11.90;;
23346;SDS011;36852;45.466;11.066;2023-03-01T05:18:40;21.87;;;11.78;;
23346;SDS011;36852;45.466;11.066;2023-03-01T05:21:09;20.12;;;12.10;;
23346;SDS011;36852;45.466;11.066;2023-03-01T05:23:40;22.55;;;12.25;;
23346;SDS011;36852;45.466;11.066;2023-03-01T05:26:07;22.15;;;12.53;;
23346;SDS011;36852;45.466;11.066;2023-03-01T05:28:38;25.02;;;13.48;;
23346;SDS011;36852;45.466;11.066;2023-03-01T05:31:06;21.93;;;13.95;;
23346;SDS011;36852;45.466;11.066;2023-03-01T05:33:37;24.77;;;13.68;;
23346;SDS011;36852;45.466;11.066;2023-03-01T05:36:06;21.37;;;14.07;;
23346;SDS011;36852;45.466;11.066;2023-03-01T05:38:35;26.07;;;13.68;;
23346;SDS011;36852;45.466;11.066;2023-03-01T05:41:04;23.32;;;13.40;;
23346;SDS011;36852;45.466;11.066;2023-03-01T05:43:32;22.73;;;13.38;;
23346;SDS011;36852;45.466;11.066;2023-03-01T05:46:01;26.55;;;13.60;;
23346;SDS011;36852;45.466;11.066;2023-03-01T05:48:29;28.50;;;14.33;;
23346;SDS011;36852;45.466;11.066;2023-03-01T05:50:58;21.82;;;13.22;;
23346;SDS011;36852;45.466;11.066;2023-03-01T05:53:28;27.50;;;12.93;;
23346;SDS011;36852;45.466;11.066;2023-03-01T05:55:57;26.45;;;13.80;;
23346;SDS011;36852;45.466;11.066;2023-03-01T05:58:25;26.30;;;13.90;;
23346;SDS011;36852;45.466;11.066;2023-03-01T06:00:54;20.60;;;13.22;;
23346;SDS011;36852;45.466;11.066;2023-03-01T06:03:23;28.80;;;13.78;;
23346;SDS011;36852;45.466;11.066;2023-03-01T06:05:55;24.82;;;13.58;;
23346;SDS011;36852;45.466;11.066;2023-03-01T06:08:24;26.42;;;13.62;;
23346;SDS011;36852;45.466;11.066;2023-03-01T06:10:54;25.68;;;15.28;;
23346;SDS011;36852;45.466;11.066;2023-03-01T06:16:04;28.70;;;14.90;;
23346;SDS011;36852;45.466;11.066;2023-03-01T06:18:33;28.07;;;15.38;;
23346;SDS011;36852;45.466;11.066;2023-03-01T06:21:01;26.17;;;13.90;;
23346;SDS011;36852;45.466;11.066;2023-03-01T06:23:30;30.65;;;15.08;;
23346;SDS011;36852;45.466;11.066;2023-03-01T06:25:59;27.52;;;14.73;;
23346;SDS011;36852;45.466;11.066;2023-03-01T06:28:27;25.35;;;14.28;;
23346;SDS011;36852;45.466;11.066;2023-03-01T06:30:56;31.73;;;15.80;;
23346;SDS011;36852;45.466;11.066;2023-03-01T06:33:24;28.52;;;14.98;;
23346;SDS011;36852;45.466;11.066;2023-03-01T06:35:54;26.87;;;14.07;;
23346;SDS011;36852;45.466;11.066;2023-03-01T06:38:23;26.12;;;14.78;;
23346;SDS011;36852;45.466;11.066;2023-03-01T06:40:52;28.23;;;15.18;;
23346;SDS011;36852;45.466;11.066;2023-03-01T06:43:24;28.77;;;14.95;;
23346;SDS011;36852;45.466;11.066;2023-03-01T06:45:52;25.65;;;14.65;;
23346;SDS011;36852;45.466;11.066;2023-03-01T06:48:20;22.67;;;13.05;;
23346;SDS011;36852;45.466;11.066;2023-03-01T06:50:49;33.65;;;15.38;;
23346;SDS011;36852;45.466;11.066;2023-03-01T06:53:17;42.60;;;18.62;;
23346;SDS011;36852;45.466;11.066;2023-03-01T06:55:45;27.15;;;13.88;;
23346;SDS011;36852;45.466;11.066;2023-03-01T06:58:13;23.32;;;13.22;;
23346;SDS011;36852;45.466;11.066;2023-03-01T07:00:41;24.80;;;13.70;;
23346;SDS011;36852;45.466;11.066;2023-03-01T07:03:10;29.67;;;13.78;;
23346;SDS011;36852;45.466;11.066;2023-03-01T07:05:41;21.85;;;12.85;;
23346;SDS011;36852;45.466;11.066;2023-03-01T07:08:10;25.20;;;14.38;;
23346;SDS011;36852;45.466;11.066;2023-03-01T07:10:38;26.45;;;14.98;;
23346;SDS011;36852;45.466;11.066;2023-03-01T07:13:07;24.65;;;14.05;;
23346;SDS011;36852;45.466;11.066;2023-03-01T07:15:35;23.15;;;14.13;;
23346;SDS011;36852;45.466;11.066;2023-03-01T07:18:04;29.20;;;15.05;;
23346;SDS011;36852;45.466;11.066;2023-03-01T07:20:32;28.47;;;16.80;;
23346;SDS011;36852;45.466;11.066;2023-03-01T07:23:00;32.75;;;16.85;;
23346;SDS011;36852;45.466;11.066;2023-03-01T07:25:32;32.78;;;18.12;;
23346;SDS011;36852;45.466;11.066;2023-03-01T07:28:01;34.40;;;19.82;;
23346;SDS011;36852;45.466;11.066;2023-03-01T07:30:30;29.82;;;16.95;;
23346;SDS011;36852;45.466;11.066;2023-03-01T07:33:02;30.55;;;16.10;;
23346;SDS011;36852;45.466;11.066;2023-03-01T07:35:31;28.00;;;15.50;;
23346;SDS011;36852;45.466;11.066;2023-03-01T07:38:01;25.82;;;15.88;;
23346;SDS011;36852;45.466;11.066;2023-03-01T07:40:51;28.12;;;16.62;;
23346;SDS011;36852;45.466;11.066;2023-03-01T07:43:19;30.68;;;16.48;;
23346;SDS011;36852;45.466;11.066;2023-03-01T07:45:47;28.57;;;15.63;;
23346;SDS011;36852;45.466;11.066;2023-03-01T07:48:15;26.75;;;14.83;;
23346;SDS011;36852;45.466;11.066;2023-03-01T07:50:43;27.77;;;14.58;;
23346;SDS011;36852;45.466;11.066;2023-03-01T07:53:11;28.42;;;15.05;;
23346;SDS011;36852;45.466;11.066;2023-03-01T07:55:40;27.85;;;15.43;;
23346;SDS011;36852;45.466;11.066;2023-03-01T07:58:08;28.65;;;16.60;;
23346;SDS011;36852;45.466;11.066;2023-03-01T08:00:39;26.02;;;16.75;;
23346;SDS011;36852;45.466;11.066;2023-03-01T08:03:08;33.25;;;16.67;;
23346;SDS011;36852;45.466;11.066;2023-03-01T08:05:36;25.50;;;14.68;;
23346;SDS011;36852;45.466;11.066;2023-03-01T08:08:04;28.92;;;15.38;;
23346;SDS011;36852;45.466;11.066;2023-03-01T08:13:25;38.67;;;22.05;;
23346;SDS011;36852;45.466;11.066;2023-03-01T08:15:54;30.90;;;16.93;;
23346;SDS011;36852;45.466;11.066;2023-03-01T08:18:21;32.13;;;17.67;;
23346;SDS011;36852;45.466;11.066;2023-03-01T08:20:49;27.58;;;16.57;;
23346;SDS011;36852;45.466;11.066;2023-03-01T08:23:18;42.58;;;24.07;;
23346;SDS011;36852;45.466;11.066;2023-03-01T08:28:36;25.75;;;15.90;;
23346;SDS011;36852;45.466;11.066;2023-03-01T08:31:14;27.80;;;17.23;;
23346;SDS011;36852;45.466;11.066;2023-03-01T08:33:42;32.98;;;16.40;;
23346;SDS011;36852;45.466;11.066;2023-03-01T08:36:17;30.88;;;16.65;;
23346;SDS011;36852;45.466;11.066;2023-03-01T08:38:45;27.77;;;16.25;;
23346;SDS011;36852;45.466;11.066;2023-03-01T08:41:14;27.05;;;16.02;;
23346;SDS011;36852;45.466;11.066;2023-03-01T08:43:42;26.60;;;16.25;;
23346;SDS011;36852;45.466;11.066;2023-03-01T08:46:12;27.73;;;16.62;;
23346;SDS011;36852;45.466;11.066;2023-03-01T08:48:40;29.57;;;17.45;;
23346;SDS011;36852;45.466;11.066;2023-03-01T08:51:15;26.33;;;16.52;;
23346;SDS011;36852;45.466;11.066;2023-03-01T08:53:49;25.72;;;17.07;;
23346;SDS011;36852;45.466;11.066;2023-03-01T08:56:17;28.77;;;17.42;;
23346;SDS011;36852;45.466;11.066;2023-03-01T09:01:32;38.38;;;19.77;;
23346;SDS011;36852;45.466;11.066;2023-03-01T09:04:00;30.92;;;18.70;;
23346;SDS011;36852;45.466;11.066;2023-03-01T09:06:32;33.63;;;21.35;;
23346;SDS011;36852;45.466;11.066;2023-03-01T09:09:01;38.40;;;22.20;;
23346;SDS011;36852;45.466;11.066;2023-03-01T09:11:30;40.23;;;23.95;;
23346;SDS011;36852;45.466;11.066;2023-03-01T09:13:58;39.98;;;22.25;;
23346;SDS011;36852;45.466;11.066;2023-03-01T09:16:26;35.38;;;23.15;;
23346;SDS011;36852;45.466;11.066;2023-03-01T09:18:54;40.50;;;25.02;;
23346;SDS011;36852;45.466;11.066;2023-03-01T09:21:23;42.27;;;25.08;;
23346;SDS011;36852;45.466;11.066;2023-03-01T09:23:55;36.42;;;21.23;;
23346;SDS011;36852;45.466;11.066;2023-03-01T09:26:24;32.38;;;20.85;;
23346;SDS011;36852;45.466;11.066;2023-03-01T09:28:53;38.53;;;18.90;;
23346;SDS011;36852;45.466;11.066;2023-03-01T09:31:23;31.02;;;18.50;;
23346;SDS011;36852;45.466;11.066;2023-03-01T09:33:52;38.25;;;21.10;;
23346;SDS011;36852;45.466;11.066;2023-03-01T09:36:23;31.77;;;19.00;;
23346;SDS011;36852;45.466;11.066;2023-03-01T09:38:52;30.70;;;19.05;;
23346;SDS011;36852;45.466;11.066;2023-03-01T09:47:03;30.97;;;18.35;;
23346;SDS011;36852;45.466;11.066;2023-03-01T09:49:33;37.80;;;20.85;;
23346;SDS011;36852;45.466;11.066;2023-03-01T09:54:54;31.70;;;20.70;;
23346;SDS011;36852;45.466;11.066;2023-03-01T09:57:33;30.48;;;16.32;;
23346;SDS011;36852;45.466;11.066;2023-03-01T10:03:00;27.45;;;15.30;;
23346;SDS011;36852;45.466;11.066;2023-03-01T10:10:58;23.83;;;14.03;;
23346;SDS011;36852;45.466;11.066;2023-03-01T10:16:16;23.50;;;13.28;;
23346;SDS011;36852;45.466;11.066;2023-03-01T10:18:58;23.98;;;14.73;;
23346;SDS011;36852;45.466;11.066;2023-03-01T10:21:28;25.55;;;15.43;;
23346;SDS011;36852;45.466;11.066;2023-03-01T10:24:04;27.60;;;14.25;;
23346;SDS011;36852;45.466;11.066;2023-03-01T10:26:54;20.57;;;13.35;;
23346;SDS011;36852;45.466;11.066;2023-03-01T10:29:44;25.02;;;15.32;;
23346;SDS011;36852;45.466;11.066;2023-03-01T10:32:08;23.67;;;14.07;;
23346;SDS011;36852;45.466;11.066;2023-03-01T10:34:38;24.23;;;14.73;;
23346;SDS011;36852;45.466;11.066;2023-03-01T10:37:13;22.90;;;14.73;;
23346;SDS011;36852;45.466;11.066;2023-03-01T10:42:38;25.32;;;13.62;;
23346;SDS011;36852;45.466;11.066;2023-03-01T10:48:11;21.50;;;12.75;;
23346;SDS011;36852;45.466;11.066;2023-03-01T10:50:47;24.47;;;12.43;;
23346;SDS011;36852;45.466;11.066;2023-03-01T10:55:58;18.98;;;13.00;;
23346;SDS011;36852;45.466;11.066;2023-03-01T10:58:30;20.40;;;12.73;;
23346;SDS011;36852;45.466;11.066;2023-03-01T11:01:35;21.65;;;11.50;;
23346;SDS011;36852;45.466;11.066;2023-03-01T11:03:44;32.65;;;11.48;;
23346;SDS011;36852;45.466;11.066;2023-03-01T11:08:46;18.23;;;11.88;;
23346;SDS011;36852;45.466;11.066;2023-03-01T11:11:32;15.80;;;11.10;;
23346;SDS011;36852;45.466;11.066;2023-03-01T11:16:57;20.48;;;11.10;;
23346;SDS011;36852;45.466;11.066;2023-03-01T11:19:30;16.05;;;10.30;;
23346;SDS011;36852;45.466;11.066;2023-03-01T11:24:49;18.67;;;11.93;;
23346;SDS011;36852;45.466;11.066;2023-03-01T11:27:32;20.60;;;11.48;;
23346;SDS011;36852;45.466;11.066;2023-03-01T11:30:36;18.42;;;12.35;;
23346;SDS011;36852;45.466;11.066;2023-03-01T11:35:50;21.17;;;12.55;;
23346;SDS011;36852;45.466;11.066;2023-03-01T11:38:24;20.40;;;12.80;;
23346;SDS011;36852;45.466;11.066;2023-03-01T11:41:03;23.02;;;13.22;;
23346;SDS011;36852;45.466;11.066;2023-03-01T11:57:22;21.20;;;12.70;;
23346;SDS011;36852;45.466;11.066;2023-03-01T12:06:27;19.32;;;12.43;;
23346;SDS011;36852;45.466;11.066;2023-03-01T12:08:41;22.95;;;12.75;;
23346;SDS011;36852;45.466;11.066;2023-03-01T12:27:59;11.22;;;6.45;;
23346;SDS011;36852;45.466;11.066;2023-03-01T12:35:59;11.73;;;6.22;;
23346;SDS011;36852;45.466;11.066;2023-03-01T12:41:05;17.85;;;5.72;;
23346;SDS011;36852;45.466;11.066;2023-03-01T12:49:11;13.53;;;6.40;;
23346;SDS011;36852;45.466;11.066;2023-03-01T12:51:50;13.18;;;6.20;;
23346;SDS011;36852;45.466;11.066;2023-03-01T12:54:30;11.75;;;6.53;;
23346;SDS011;36852;45.466;11.066;2023-03-01T12:56:58;13.32;;;6.50;;
23346;SDS011;36852;45.466;11.066;2023-03-01T12:59:38;12.15;;;6.42;;
23346;SDS011;36852;45.466;11.066;2023-03-01T13:10:02;9.23;;;7.08;;
23346;SDS011;36852;45.466;11.066;2023-03-01T13:17:56;11.78;;;5.53;;
23346;SDS011;36852;45.466;11.066;2023-03-01T13:20:33;12.73;;;5.17;;
23346;SDS011;36852;45.466;11.066;2023-03-01T13:28:44;12.90;;;4.90;;
23346;SDS011;36852;45.466;11.066;2023-03-01T13:33:54;15.13;;;5.08;;
23346;SDS011;36852;45.466;11.066;2023-03-01T13:39:03;13.13;;;4.28;;
23346;SDS011;36852;45.466;11.066;2023-03-01T13:46:57;14.68;;;4.70;;
23346;SDS011;36852;45.466;11.066;2023-03-01T13:54:54;18.20;;;7.65;;
23346;SDS011;36852;45.466;11.066;2023-03-01T13:57:24;16.57;;;8.68;;
23346;SDS011;36852;45.466;11.066;2023-03-01T13:59:55;11.65;;;5.85;;
23346;SDS011;36852;45.466;11.066;2023-03-01T14:02:23;13.15;;;6.08;;
23346;SDS011;36852;45.466;11.066;2023-03-01T14:04:58;10.65;;;6.08;;
23346;SDS011;36852;45.466;11.066;2023-03-01T14:07:27;13.18;;;5.85;;
23346;SDS011;36852;45.466;11.066;2023-03-01T14:10:03;13.45;;;5.53;;
23346;SDS011;36852;45.466;11.066;2023-03-01T14:20:42;10.98;;;5.80;;
23346;SDS011;36852;45.466;11.066;2023-03-01T14:23:14;10.95;;;5.50;;
23346;SDS011;36852;45.466;11.066;2023-03-01T14:25:46;14.10;;;5.83;;
23346;SDS011;36852;45.466;11.066;2023-03-01T14:28:27;11.73;;;7.12;;
23346;SDS011;36852;45.466;11.066;2023-03-01T14:30:57;13.87;;;6.60;;
23346;SDS011;36852;45.466;11.066;2023-03-01T14:33:31;12.70;;;5.70;;
23346;SDS011;36852;45.466;11.066;2023-03-01T14:38:40;15.58;;;5.47;;
23346;SDS011;36852;45.466;11.066;2023-03-01T14:41:13;16.35;;;6.35;;
23346;SDS011;36852;45.466;11.066;2023-03-01T14:43:50;17.42;;;5.92;;
23346;SDS011;36852;45.466;11.066;2023-03-01T14:46:21;9.30;;;5.65;;
23346;SDS011;36852;45.466;11.066;2023-03-01T14:48:53;9.05;;;5.25;;
23346;SDS011;36852;45.466;11.066;2023-03-01T14:51:26;11.25;;;5.67;;
23346;SDS011;36852;45.466;11.066;2023-03-01T14:53:54;10.40;;;4.65;;
23346;SDS011;36852;45.466;11.066;2023-03-01T14:56:22;17.37;;;5.37;;
23346;SDS011;36852;45.466;11.066;2023-03-01T14:58:51;14.18;;;4.50;;
23346;SDS011;36852;45.466;11.066;2023-03-01T15:01:20;11.43;;;4.65;;
23346;SDS011;36852;45.466;11.066;2023-03-01T15:03:49;11.48;;;5.00;;
23346;SDS011;36852;45.466;11.066;2023-03-01T15:06:20;11.43;;;4.65;;
23346;SDS011;36852;45.466;11.066;2023-03-01T15:08:54;11.48;;;5.37;;
23346;SDS011;36852;45.466;11.066;2023-03-01T15:13:53;12.53;;;6.00;;
23346;SDS011;36852;45.466;11.066;2023-03-01T15:16:31;8.80;;;5.67;;
23346;SDS011;36852;45.466;11.066;2023-03-01T15:19:03;11.65;;;4.85;;
23346;SDS011;36852;45.466;11.066;2023-03-01T15:24:14;8.60;;;4.83;;
23346;SDS011;36852;45.466;11.066;2023-03-01T15:26:52;13.83;;;5.67;;
23346;SDS011;36852;45.466;11.066;2023-03-01T15:29:27;10.93;;;5.20;;
23346;SDS011;36852;45.466;11.066;2023-03-01T15:32:04;18.12;;;6.70;;
23346;SDS011;36852;45.466;11.066;2023-03-01T15:34:37;13.32;;;7.28;;
23346;SDS011;36852;45.466;11.066;2023-03-01T15:40:17;17.92;;;7.03;;
23346;SDS011;36852;45.466;11.066;2023-03-01T15:42:53;14.40;;;6.72;;
23346;SDS011;36852;45.466;11.066;2023-03-01T15:45:23;16.85;;;6.70;;
23346;SDS011;36852;45.466;11.066;2023-03-01T15:47:58;12.15;;;6.37;;
23346;SDS011;36852;45.466;11.066;2023-03-01T15:50:36;11.85;;;6.65;;
23346;SDS011;36852;45.466;11.066;2023-03-01T15:53:07;12.15;;;6.53;;
23346;SDS011;36852;45.466;11.066;2023-03-01T15:55:38;13.50;;;6.80;;
23346;SDS011;36852;45.466;11.066;2023-03-01T16:00:41;12.25;;;7.75;;
23346;SDS011;36852;45.466;11.066;2023-03-01T16:03:11;13.20;;;7.00;;
23346;SDS011;36852;45.466;11.066;2023-03-01T16:05:40;13.05;;;8.68;;
23346;SDS011;36852;45.466;11.066;2023-03-01T16:08:08;23.02;;;7.85;;
23346;SDS011;36852;45.466;11.066;2023-03-01T16:10:40;17.27;;;8.68;;
23346;SDS011;36852;45.466;11.066;2023-03-01T16:13:13;15.58;;;8.58;;
23346;SDS011;36852;45.466;11.066;2023-03-01T16:15:39;17.23;;;8.00;;
23346;SDS011;36852;45.466;11.066;2023-03-01T16:18:08;14.47;;;8.25;;
23346;SDS011;36852;45.466;11.066;2023-03-01T16:20:37;14.28;;;8.45;;
23346;SDS011;36852;45.466;11.066;2023-03-01T16:23:06;15.55;;;8.60;;
23346;SDS011;36852;45.466;11.066;2023-03-01T16:25:35;14.28;;;8.20;;
23346;SDS011;36852;45.466;11.066;2023-03-01T16:28:04;13.35;;;8.95;;
23346;SDS011;36852;45.466;11.066;2023-03-01T16:30:35;16.73;;;8.90;;
23346;SDS011;36852;45.466;11.066;2023-03-01T16:33:04;12.30;;;7.95;;
23346;SDS011;36852;45.466;11.066;2023-03-01T16:35:39;12.73;;;7.17;;
23346;SDS011;36852;45.466;11.066;2023-03-01T16:38:07;11.03;;;7.83;;
23346;SDS011;36852;45.466;11.066;2023-03-01T16:40:35;11.68;;;7.22;;
23346;SDS011;36852;45.466;11.066;2023-03-01T16:43:03;16.40;;;7.97;;
23346;SDS011;36852;45.466;11.066;2023-03-01T16:45:33;14.05;;;8.00;;
23346;SDS011;36852;45.466;11.066;2023-03-01T16:48:03;12.37;;;8.00;;
23346;SDS011;36852;45.466;11.066;2023-03-01T16:50:33;11.50;;;7.80;;
23346;SDS011;36852;45.466;11.066;2023-03-01T16:53:04;10.98;;;7.05;;
23346;SDS011;36852;45.466;11.066;2023-03-01T16:55:33;12.43;;;7.35;;
23346;SDS011;36852;45.466;11.066;2023-03-01T16:58:01;15.43;;;7.35;;
23346;SDS011;36852;45.466;11.066;2023-03-01T17:00:30;11.93;;;7.33;;
23346;SDS011;36852;45.466;11.066;2023-03-01T17:02:58;13.13;;;6.97;;
23346;SDS011;36852;45.466;11.066;2023-03-01T17:05:26;14.40;;;7.20;;
23346;SDS011;36852;45.466;11.066;2023-03-01T17:07:54;13.13;;;6.80;;
23346;SDS011;36852;45.466;11.066;2023-03-01T17:10:23;9.90;;;6.92;;
23346;SDS011;36852;45.466;11.066;2023-03-01T17:12:52;11.93;;;7.55;;
23346;SDS011;36852;45.466;11.066;2023-03-01T17:15:20;10.75;;;6.87;;
23346;SDS011;36852;45.466;11.066;2023-03-01T17:17:48;11.22;;;6.60;;
23346;SDS011;36852;45.466;11.066;2023-03-01T17:20:18;10.98;;;7.53;;
23346;SDS011;36852;45.466;11.066;2023-03-01T17:22:49;10.35;;;6.87;;
23346;SDS011;36852;45.466;11.066;2023-03-01T17:25:18;15.88;;;7.42;;
23346;SDS011;36852;45.466;11.066;2023-03-01T17:27:47;13.38;;;7.22;;
23346;SDS011;36852;45.466;11.066;2023-03-01T17:30:15;12.65;;;8.28;;
23346;SDS011;36852;45.466;11.066;2023-03-01T17:32:44;14.40;;;9.35;;
23346;SDS011;36852;45.466;11.066;2023-03-01T17:35:12;16.35;;;9.90;;
23346;SDS011;36852;45.466;11.066;2023-03-01T17:37:40;14.58;;;8.98;;
23346;SDS011;36852;45.466;11.066;2023-03-01T17:40:11;14.03;;;8.40;;